sensor_id;sensor_type;location;lat;lon;timestamp;pressure;altitude;pressure_sealevel;temperature;humidity
38038;BME280;23843;51.320;12.340;2023-06-04T00:01:07;100818.44;;;13.48;35.96
38038;BME280;23843;51.320;12.340;2023-06-04T00:03:34;100812.34;;;13.46;35.60
38038;BME280;23843;51.320;12.340;2023-06-04T00:06:00;100815.28;;;13.41;35.90
38038;BME280;23843;51.320;12.340;2023-06-04T00:08:25;100807.72;;;13.34;37.51
38038;BME280;23843;51.320;12.340;2023-06-04T00:10:51;100808.03;;;13.29;36.52
38038;BME280;23843;51.320;12.340;2023-06-04T00:13:16;100806.13;;;13.31;36.21
38038;BME280;23843;51.320;12.340;2023-06-04T00:15:43;100803.56;;;13.30;36.44
38038;BME280;23843;51.320;12.340;2023-06-04T00:18:09;100805.69;;;13.23;36.55
38038;BME280;23843;51.320;12.340;2023-06-04T00:20:34;100799.84;;;13.16;37.19
38038;BME280;23843;51.320;12.340;2023-06-04T00:23:00;100801.91;;;13.11;37.44
38038;BME280;23843;51.320;12.340;2023-06-04T00:25:25;100800.56;;;13.04;37.46
38038;BME280;23843;51.320;12.340;2023-06-04T00:27:51;100796.53;;;12.97;37.94
38038;BME280;23843;51.320;12.340;2023-06-04T00:30:17;100796.91;;;12.91;38.58
38038;BME280;23843;51.320;12.340;2023-06-04T00:32:44;100790.13;;;12.85;38.99
38038;BME280;23843;51.320;12.340;2023-06-04T00:35:09;100788.66;;;12.79;39.09
38038;BME280;23843;51.320;12.340;2023-06-04T00:37:34;100789.00;;;12.73;39.53
38038;BME280;23843;51.320;12.340;2023-06-04T00:40:00;100784.88;;;12.68;40.18
38038;BME280;23843;51.320;12.340;2023-06-04T00:42:26;100787.97;;;12.60;40.43
38038;BME280;23843;51.320;12.340;2023-06-04T00:44:54;100790.03;;;12.55;41.42
38038;BME280;23843;51.320;12.340;2023-06-04T00:47:20;100790.38;;;12.49;41.25
38038;BME280;23843;51.320;12.340;2023-06-04T00:49:48;100786.16;;;12.45;42.03
38038;BME280;23843;51.320;12.340;2023-06-04T00:52:14;100789.94;;;12.40;41.54
38038;BME280;23843;51.320;12.340;2023-06-04T00:54:40;100786.50;;;12.38;42.17
38038;BME280;23843;51.320;12.340;2023-06-04T00:57:06;100776.03;;;12.35;41.60
38038;BME280;23843;51.320;12.340;2023-06-04T00:59:35;100785.88;;;12.33;41.67
38038;BME280;23843;51.320;12.340;2023-06-04T01:02:06;100782.56;;;12.30;41.88
38038;BME280;23843;51.320;12.340;2023-06-04T01:04:40;100782.72;;;12.27;41.81
38038;BME280;23843;51.320;12.340;2023-06-04T01:07:13;100782.03;;;12.23;42.12
38038;BME280;23843;51.320;12.340;2023-06-04T01:09:39;100783.06;;;12.20;42.18
38038;BME280;23843;51.320;12.340;2023-06-04T01:12:06;100789.38;;;12.18;42.85
38038;BME280;23843;51.320;12.340;2023-06-04T01:14:32;100786.81;;;12.16;41.27
38038;BME280;23843;51.320;12.340;2023-06-04T01:16:59;100788.53;;;12.17;41.67
38038;BME280;23843;51.320;12.340;2023-06-04T01:19:53;100789.63;;;12.13;42.69
38038;BME280;23843;51.320;12.340;2023-06-04T01:22:32;100789.81;;;12.10;43.17
38038;BME280;23843;51.320;12.340;2023-06-04T01:25:03;100789.09;;;12.07;43.20
38038;BME280;23843;51.320;12.340;2023-06-04T01:27:29;100786.78;;;12.01;43.74
38038;BME280;23843;51.320;12.340;2023-06-04T01:29:55;100785.22;;;11.96;43.17
38038;BME280;23843;51.320;12.340;2023-06-04T01:32:20;100784.53;;;11.93;43.43
38038;BME280;23843;51.320;12.340;2023-06-04T01:34:46;100780.25;;;11.90;43.21
38038;BME280;23843;51.320;12.340;2023-06-04T01:37:11;100782.13;;;11.88;43.31
38038;BME280;23843;51.320;12.340;2023-06-04T01:39:38;100781.47;;;11.83;43.96
38038;BME280;23843;51.320;12.340;2023-06-04T01:42:04;100780.69;;;11.81;44.78
38038;BME280;23843;51.320;12.340;2023-06-04T01:44:30;100781.88;;;11.75;44.36
38038;BME280;23843;51.320;12.340;2023-06-04T01:46:57;100779.28;;;11.74;44.73
38038;BME280;23843;51.320;12.340;2023-06-04T01:49:23;100781.16;;;11.72;44.40
38038;BME280;23843;51.320;12.340;2023-06-04T01:51:48;100791.00;;;11.70;45.19
38038;BME280;23843;51.320;12.340;2023-06-04T01:54:14;100791.22;;;11.65;44.43
38038;BME280;23843;51.320;12.340;2023-06-04T01:56:40;100786.94;;;11.63;45.21
38038;BME280;23843;51.320;12.340;2023-06-04T01:59:06;100794.13;;;11.61;46.48
38038;BME280;23843;51.320;12.340;2023-06-04T02:01:31;100797.94;;;11.55;48.53
38038;BME280;23843;51.320;12.340;2023-06-04T02:03:57;100798.19;;;11.50;47.70
38038;BME280;23843;51.320;12.340;2023-06-04T02:06:22;100799.31;;;11.46;48.41
38038;BME280;23843;51.320;12.340;2023-06-04T02:08:48;100796.94;;;11.40;48.82
38038;BME280;23843;51.320;12.340;2023-06-04T02:11:13;100800.69;;;11.36;49.13
38038;BME280;23843;51.320;12.340;2023-06-04T02:13:40;100795.69;;;11.30;50.96
38038;BME280;23843;51.320;12.340;2023-06-04T02:16:06;100799.41;;;11.26;50.87
38038;BME280;23843;51.320;12.340;2023-06-04T02:18:31;100800.53;;;11.22;50.40
38038;BME280;23843;51.320;12.340;2023-06-04T02:20:57;100804.16;;;11.19;51.25
38038;BME280;23843;51.320;12.340;2023-06-04T02:23:22;100797.22;;;11.17;51.20
38038;BME280;23843;51.320;12.340;2023-06-04T02:25:48;100804.47;;;11.13;51.72
38038;BME280;23843;51.320;12.340;2023-06-04T02:28:14;100805.50;;;11.10;50.81
38038;BME280;23843;51.320;12.340;2023-06-04T02:30:42;100800.19;;;11.10;51.26
38038;BME280;23843;51.320;12.340;2023-06-04T02:33:07;100802.06;;;11.08;50.86
38038;BME280;23843;51.320;12.340;2023-06-04T02:35:33;100805.78;;;11.04;53.01
38038;BME280;23843;51.320;12.340;2023-06-04T02:37:58;100799.72;;;11.02;52.11
38038;BME280;23843;51.320;12.340;2023-06-04T02:40:24;100802.44;;;11.01;52.89
38038;BME280;23843;51.320;12.340;2023-06-04T02:42:49;100800.78;;;10.98;53.39
38038;BME280;23843;51.320;12.340;2023-06-04T02:45:15;100804.34;;;10.97;52.70
38038;BME280;23843;51.320;12.340;2023-06-04T02:47:41;100804.44;;;10.96;52.90
38038;BME280;23843;51.320;12.340;2023-06-04T02:50:08;100799.38;;;10.91;54.13
38038;BME280;23843;51.320;12.340;2023-06-04T02:52:33;100804.94;;;10.85;55.40
38038;BME280;23843;51.320;12.340;2023-06-04T02:54:59;100799.03;;;10.80;55.83
38038;BME280;23843;51.320;12.340;2023-06-04T02:57:24;100801.81;;;10.77;56.14
38038;BME280;23843;51.320;12.340;2023-06-04T02:59:50;100810.84;;;10.73;56.06
38038;BME280;23843;51.320;12.340;2023-06-04T03:02:16;100802.88;;;10.73;54.76
38038;BME280;23843;51.320;12.340;2023-06-04T03:04:43;100800.25;;;10.73;56.31
38038;BME280;23843;51.320;12.340;2023-06-04T03:09:34;100814.28;;;10.75;55.63
38038;BME280;23843;51.320;12.340;2023-06-04T03:12:02;100816.06;;;10.74;56.24
38038;BME280;23843;51.320;12.340;2023-06-04T03:14:27;100809.84;;;10.75;56.63
38038;BME280;23843;51.320;12.340;2023-06-04T03:16:53;100817.03;;;10.73;57.10
38038;BME280;23843;51.320;12.340;2023-06-04T03:19:18;100817.03;;;10.73;56.85
38038;BME280;23843;51.320;12.340;2023-06-04T03:21:45;100820.53;;;10.74;56.46
38038;BME280;23843;51.320;12.340;2023-06-04T03:24:11;100822.22;;;10.75;57.27
38038;BME280;23843;51.320;12.340;2023-06-04T03:26:36;100816.03;;;10.76;57.53
38038;BME280;23843;51.320;12.340;2023-06-04T03:29:02;100828.31;;;10.77;57.41
38038;BME280;23843;51.320;12.340;2023-06-04T03:31:27;100828.31;;;10.77;57.97
38038;BME280;23843;51.320;12.340;2023-06-04T03:33:52;100831.75;;;10.79;57.27
38038;BME280;23843;51.320;12.340;2023-06-04T03:36:18;100836.22;;;10.78;58.47
38038;BME280;23843;51.320;12.340;2023-06-04T03:38:46;100829.19;;;10.77;60.23
38038;BME280;23843;51.320;12.340;2023-06-04T03:41:11;100840.63;;;10.78;59.49
38038;BME280;23843;51.320;12.340;2023-06-04T03:43:37;100835.31;;;10.78;59.43
38038;BME280;23843;51.320;12.340;2023-06-04T03:46:02;100837.84;;;10.81;58.96
38038;BME280;23843;51.320;12.340;2023-06-04T03:48:29;100835.84;;;10.86;58.85
38038;BME280;23843;51.320;12.340;2023-06-04T03:50:54;100834.78;;;10.90;58.57
38038;BME280;23843;51.320;12.340;2023-06-04T03:53:20;100830.97;;;10.96;58.74
38038;BME280;23843;51.320;12.340;2023-06-04T03:55:47;100830.88;;;10.97;59.15
38038;BME280;23843;51.320;12.340;2023-06-04T03:58:12;100834.25;;;11.01;60.02
38038;BME280;23843;51.320;12.340;2023-06-04T04:00:38;100836.69;;;11.05;59.61
38038;BME280;23843;51.320;12.340;2023-06-04T04:03:03;100829.50;;;11.07;60.63
38038;BME280;23843;51.320;12.340;2023-06-04T04:05:28;100840.88;;;11.09;62.54
38038;BME280;23843;51.320;12.340;2023-06-04T04:07:54;100830.06;;;11.14;61.22
38038;BME280;23843;51.320;12.340;2023-06-04T04:10:20;100837.56;;;11.23;60.40
38038;BME280;23843;51.320;12.340;2023-06-04T04:12:47;100840.47;;;11.36;60.53
38038;BME280;23843;51.320;12.340;2023-06-04T04:15:12;100845.16;;;11.48;61.78
38038;BME280;23843;51.320;12.340;2023-06-04T04:17:38;100836.91;;;11.54;60.97
38038;BME280;23843;51.320;12.340;2023-06-04T04:20:04;100840.41;;;11.72;60.90
38038;BME280;23843;51.320;12.340;2023-06-04T04:22:29;100832.31;;;11.93;60.75
38038;BME280;23843;51.320;12.340;2023-06-04T04:24:55;100834.25;;;12.40;57.41
38038;BME280;23843;51.320;12.340;2023-06-04T04:27:20;100841.22;;;13.38;53.36
38038;BME280;23843;51.320;12.340;2023-06-04T04:29:47;100842.56;;;14.34;51.25
38038;BME280;23843;51.320;12.340;2023-06-04T04:32:13;100835.06;;;14.96;46.51
38038;BME280;23843;51.320;12.340;2023-06-04T04:34:38;100839.84;;;15.73;47.32
38038;BME280;23843;51.320;12.340;2023-06-04T04:37:14;100833.38;;;17.39;43.24
38038;BME280;23843;51.320;12.340;2023-06-04T04:39:40;100834.44;;;19.08;39.61
38038;BME280;23843;51.320;12.340;2023-06-04T04:42:05;100827.63;;;20.41;35.04
38038;BME280;23843;51.320;12.340;2023-06-04T04:44:31;100827.13;;;20.57;34.23
38038;BME280;23843;51.320;12.340;2023-06-04T04:46:58;100832.84;;;21.43;31.29
38038;BME280;23843;51.320;12.340;2023-06-04T04:49:23;100833.31;;;22.62;31.05
38038;BME280;23843;51.320;12.340;2023-06-04T04:51:49;100827.97;;;23.43;30.17
38038;BME280;23843;51.320;12.340;2023-06-04T04:54:14;100831.22;;;23.65;27.40
38038;BME280;23843;51.320;12.340;2023-06-04T04:56:40;100831.06;;;23.66;27.87
38038;BME280;23843;51.320;12.340;2023-06-04T04:59:05;100833.81;;;24.87;25.71
38038;BME280;23843;51.320;12.340;2023-06-04T05:01:31;100834.00;;;25.69;24.65
38038;BME280;23843;51.320;12.340;2023-06-04T05:03:58;100829.72;;;26.16;24.88
38038;BME280;23843;51.320;12.340;2023-06-04T05:06:23;100836.53;;;25.71;25.51
38038;BME280;23843;51.320;12.340;2023-06-04T05:08:49;100833.28;;;26.24;23.67
38038;BME280;23843;51.320;12.340;2023-06-04T05:11:14;100834.44;;;27.09;22.72
38038;BME280;23843;51.320;12.340;2023-06-04T05:13:40;100831.97;;;27.53;22.86
38038;BME280;23843;51.320;12.340;2023-06-04T05:16:05;100828.53;;;27.83;21.61
38038;BME280;23843;51.320;12.340;2023-06-04T05:18:31;100827.25;;;26.93;23.71
38038;BME280;23843;51.320;12.340;2023-06-04T05:20:58;100837.53;;;27.83;23.97
38038;BME280;23843;51.320;12.340;2023-06-04T05:23:23;100831.44;;;29.15;20.22
38038;BME280;23843;51.320;12.340;2023-06-04T05:25:49;100833.13;;;29.80;21.06
38038;BME280;23843;51.320;12.340;2023-06-04T05:28:14;100833.56;;;30.12;19.76
38038;BME280;23843;51.320;12.340;2023-06-04T05:30:40;100833.50;;;29.34;20.82
38038;BME280;23843;51.320;12.340;2023-06-04T05:33:05;100841.97;;;29.82;19.84
38038;BME280;23843;51.320;12.340;2023-06-04T05:35:31;100831.69;;;30.47;19.55
38038;BME280;23843;51.320;12.340;2023-06-04T05:37:58;100832.00;;;31.21;19.04
38038;BME280;23843;51.320;12.340;2023-06-04T05:40:23;100836.28;;;31.70;18.20
38038;BME280;23843;51.320;12.340;2023-06-04T05:42:49;100840.00;;;30.67;21.09
38038;BME280;23843;51.320;12.340;2023-06-04T05:45:14;100841.47;;;30.28;19.24
38038;BME280;23843;51.320;12.340;2023-06-04T05:47:40;100838.94;;;30.62;18.16
38038;BME280;23843;51.320;12.340;2023-06-04T05:50:06;100835.25;;;31.51;17.55
38038;BME280;23843;51.320;12.340;2023-06-04T05:52:32;100839.00;;;32.36;17.40
38038;BME280;23843;51.320;12.340;2023-06-04T05:54:59;100825.34;;;32.81;16.19
38038;BME280;23843;51.320;12.340;2023-06-04T05:57:24;100834.28;;;33.47;16.38
38038;BME280;23843;51.320;12.340;2023-06-04T05:59:50;100831.88;;;32.87;16.98
38038;BME280;23843;51.320;12.340;2023-06-04T06:02:15;100838.13;;;31.23;17.77
38038;BME280;23843;51.320;12.340;2023-06-04T06:04:41;100846.75;;;30.02;19.40
38038;BME280;23843;51.320;12.340;2023-06-04T06:07:07;100850.53;;;29.79;20.46
38038;BME280;23843;51.320;12.340;2023-06-04T06:09:32;100848.63;;;29.73;18.99
38038;BME280;23843;51.320;12.340;2023-06-04T06:11:59;100844.97;;;30.92;17.24
38038;BME280;23843;51.320;12.340;2023-06-04T06:14:24;100849.97;;;32.36;19.55
38038;BME280;23843;51.320;12.340;2023-06-04T06:16:50;100852.13;;;33.95;16.35
38038;BME280;23843;51.320;12.340;2023-06-04T06:19:16;100852.25;;;35.17;16.16
38038;BME280;23843;51.320;12.340;2023-06-04T06:21:41;100848.16;;;36.15;14.06
38038;BME280;23843;51.320;12.340;2023-06-04T06:24:07;100851.34;;;37.12;15.94
38038;BME280;23843;51.320;12.340;2023-06-04T06:26:32;100851.69;;;37.61;12.36
38038;BME280;23843;51.320;12.340;2023-06-04T06:28:59;100860.38;;;37.69;12.99
38038;BME280;23843;51.320;12.340;2023-06-04T06:31:25;100859.38;;;38.26;11.12
38038;BME280;23843;51.320;12.340;2023-06-04T06:33:50;100866.41;;;38.34;11.87
38038;BME280;23843;51.320;12.340;2023-06-04T06:36:16;100865.09;;;38.81;10.44
38038;BME280;23843;51.320;12.340;2023-06-04T06:38:41;100867.16;;;38.68;11.34
38038;BME280;23843;51.320;12.340;2023-06-04T06:41:07;100861.81;;;39.65;14.64
38038;BME280;23843;51.320;12.340;2023-06-04T06:43:33;100866.50;;;40.87;11.84
38038;BME280;23843;51.320;12.340;2023-06-04T06:46:00;100864.72;;;41.69;11.02
38038;BME280;23843;51.320;12.340;2023-06-04T06:48:25;100874.25;;;42.74;12.66
38038;BME280;23843;51.320;12.340;2023-06-04T06:50:51;100870.97;;;43.27;12.20
38038;BME280;23843;51.320;12.340;2023-06-04T06:53:16;100875.81;;;43.46;9.35
38038;BME280;23843;51.320;12.340;2023-06-04T06:55:42;100874.06;;;42.55;8.79
38038;BME280;23843;51.320;12.340;2023-06-04T06:58:07;100873.00;;;42.31;10.21
38038;BME280;23843;51.320;12.340;2023-06-04T07:00:33;100877.78;;;43.01;9.94
38038;BME280;23843;51.320;12.340;2023-06-04T07:03:00;100870.50;;;43.10;10.29
38038;BME280;23843;51.320;12.340;2023-06-04T07:05:25;100868.03;;;42.23;8.19
38038;BME280;23843;51.320;12.340;2023-06-04T07:07:50;100868.03;;;41.25;7.56
38038;BME280;23843;51.320;12.340;2023-06-04T07:10:16;100866.31;;;40.46;8.74
38038;BME280;23843;51.320;12.340;2023-06-04T07:12:42;100869.75;;;41.62;10.74
38038;BME280;23843;51.320;12.340;2023-06-04T07:15:08;100868.09;;;41.56;8.12
38038;BME280;23843;51.320;12.340;2023-06-04T07:17:33;100873.13;;;40.71;8.62
38038;BME280;23843;51.320;12.340;2023-06-04T07:20:00;100874.53;;;40.26;11.81
38038;BME280;23843;51.320;12.340;2023-06-04T07:22:26;100869.16;;;39.44;10.46
38038;BME280;23843;51.320;12.340;2023-06-04T07:24:51;100873.88;;;40.61;8.61
38038;BME280;23843;51.320;12.340;2023-06-04T07:27:18;100882.38;;;40.01;8.36
38038;BME280;23843;51.320;12.340;2023-06-04T07:29:44;100875.50;;;40.47;10.01
38038;BME280;23843;51.320;12.340;2023-06-04T07:32:10;100881.59;;;40.43;8.96
38038;BME280;23843;51.320;12.340;2023-06-04T07:34:37;100880.13;;;40.36;8.53
38038;BME280;23843;51.320;12.340;2023-06-04T07:37:05;100882.41;;;40.07;7.90
38038;BME280;23843;51.320;12.340;2023-06-04T07:39:30;100882.72;;;39.73;8.57
38038;BME280;23843;51.320;12.340;2023-06-04T07:41:56;100887.53;;;39.83;8.45
38038;BME280;23843;51.320;12.340;2023-06-04T07:44:22;100889.38;;;39.77;9.01
38038;BME280;23843;51.320;12.340;2023-06-04T07:46:47;100897.31;;;39.36;8.38
38038;BME280;23843;51.320;12.340;2023-06-04T07:49:22;100881.31;;;39.70;8.74
38038;BME280;23843;51.320;12.340;2023-06-04T07:51:48;100887.56;;;38.84;8.59
38038;BME280;23843;51.320;12.340;2023-06-04T07:54:27;100894.97;;;38.79;9.09
38038;BME280;23843;51.320;12.340;2023-06-04T07:56:52;100895.03;;;39.06;10.85
38038;BME280;23843;51.320;12.340;2023-06-04T07:59:18;100894.25;;;38.27;8.40
38038;BME280;23843;51.320;12.340;2023-06-04T08:01:43;100889.31;;;37.96;9.03
38038;BME280;23843;51.320;12.340;2023-06-04T08:04:09;100887.91;;;37.19;9.71
38038;BME280;23843;51.320;12.340;2023-06-04T08:06:34;100882.78;;;38.02;9.15
38038;BME280;23843;51.320;12.340;2023-06-04T08:09:08;100881.53;;;37.93;9.88
38038;BME280;23843;51.320;12.340;2023-06-04T08:11:35;100878.97;;;38.42;9.75
38038;BME280;23843;51.320;12.340;2023-06-04T08:16:31;100882.25;;;34.51;10.99
38038;BME280;23843;51.320;12.340;2023-06-04T08:19:02;100877.91;;;33.30;11.73
38038;BME280;23843;51.320;12.340;2023-06-04T08:21:42;100885.94;;;33.32;12.21
38038;BME280;23843;51.320;12.340;2023-06-04T08:24:08;100880.84;;;33.35;12.50
38038;BME280;23843;51.320;12.340;2023-06-04T08:26:35;100876.28;;;32.64;12.03
38038;BME280;23843;51.320;12.340;2023-06-04T08:29:02;100886.09;;;30.70;13.51
38038;BME280;23843;51.320;12.340;2023-06-04T08:31:28;100878.41;;;29.68;14.60
38038;BME280;23843;51.320;12.340;2023-06-04T08:33:53;100881.09;;;30.81;14.92
38038;BME280;23843;51.320;12.340;2023-06-04T08:36:19;100880.59;;;32.13;12.88
38038;BME280;23843;51.320;12.340;2023-06-04T08:38:44;100884.69;;;33.28;11.68
38038;BME280;23843;51.320;12.340;2023-06-04T08:41:13;100881.28;;;34.21;12.24
38038;BME280;23843;51.320;12.340;2023-06-04T08:43:42;100896.16;;;34.57;12.11
38038;BME280;23843;51.320;12.340;2023-06-04T08:46:08;100865.81;;;35.00;10.92
38038;BME280;23843;51.320;12.340;2023-06-04T08:48:34;100874.25;;;35.47;10.60
38038;BME280;23843;51.320;12.340;2023-06-04T08:51:02;100876.44;;;36.11;10.12
38038;BME280;23843;51.320;12.340;2023-06-04T08:53:30;100876.28;;;35.70;10.20
38038;BME280;23843;51.320;12.340;2023-06-04T08:55:55;100882.41;;;35.12;11.08
38038;BME280;23843;51.320;12.340;2023-06-04T08:58:25;100874.13;;;35.96;9.97
38038;BME280;23843;51.320;12.340;2023-06-04T09:00:52;100884.72;;;35.57;10.51
38038;BME280;23843;51.320;12.340;2023-06-04T09:03:19;100880.81;;;35.76;10.38
38038;BME280;23843;51.320;12.340;2023-06-04T09:05:47;100884.66;;;35.45;10.79
38038;BME280;23843;51.320;12.340;2023-06-04T09:08:16;100883.28;;;36.32;9.33
38038;BME280;23843;51.320;12.340;2023-06-04T09:10:44;100886.88;;;37.08;9.80
38038;BME280;23843;51.320;12.340;2023-06-04T09:13:10;100879.50;;;37.71;9.07
38038;BME280;23843;51.320;12.340;2023-06-04T09:15:36;100874.09;;;38.71;9.41
38038;BME280;23843;51.320;12.340;2023-06-04T09:18:03;100876.72;;;39.27;9.65
38038;BME280;23843;51.320;12.340;2023-06-04T09:20:29;100896.50;;;38.30;8.38
38038;BME280;23843;51.320;12.340;2023-06-04T09:22:54;100898.31;;;37.00;8.26
38038;BME280;23843;51.320;12.340;2023-06-04T09:25:21;100885.19;;;36.67;9.14
38038;BME280;23843;51.320;12.340;2023-06-04T09:27:47;100872.88;;;36.86;9.74
38038;BME280;23843;51.320;12.340;2023-06-04T09:30:13;100881.63;;;38.53;9.14
38038;BME280;23843;51.320;12.340;2023-06-04T09:32:38;100879.97;;;38.36;9.00
38038;BME280;23843;51.320;12.340;2023-06-04T09:35:13;100878.56;;;38.16;8.70
38038;BME280;23843;51.320;12.340;2023-06-04T09:37:38;100873.91;;;37.83;9.07
38038;BME280;23843;51.320;12.340;2023-06-04T09:40:05;100876.69;;;36.33;10.27
38038;BME280;23843;51.320;12.340;2023-06-04T09:42:41;100876.31;;;34.73;10.51
38038;BME280;23843;51.320;12.340;2023-06-04T09:45:08;100870.03;;;33.72;11.79
38038;BME280;23843;51.320;12.340;2023-06-04T09:47:39;100885.34;;;32.78;11.90
38038;BME280;23843;51.320;12.340;2023-06-04T09:50:06;100871.06;;;31.63;13.09
38038;BME280;23843;51.320;12.340;2023-06-04T09:52:34;100866.50;;;31.08;13.23
38038;BME280;23843;51.320;12.340;2023-06-04T09:54:59;100869.59;;;30.92;14.05
38038;BME280;23843;51.320;12.340;2023-06-04T09:57:25;100876.09;;;30.49;14.13
38038;BME280;23843;51.320;12.340;2023-06-04T09:59:53;100872.41;;;30.07;14.36
38038;BME280;23843;51.320;12.340;2023-06-04T10:02:21;100873.69;;;29.83;14.61
38038;BME280;23843;51.320;12.340;2023-06-04T10:04:49;100866.53;;;29.61;14.25
38038;BME280;23843;51.320;12.340;2023-06-04T10:07:18;100865.25;;;29.20;14.35
38038;BME280;23843;51.320;12.340;2023-06-04T10:09:46;100865.06;;;28.56;14.19
38038;BME280;23843;51.320;12.340;2023-06-04T10:12:13;100870.06;;;27.77;15.66
38038;BME280;23843;51.320;12.340;2023-06-04T10:14:41;100875.13;;;27.02;16.54
38038;BME280;23843;51.320;12.340;2023-06-04T10:17:11;100873.38;;;26.70;16.88
38038;BME280;23843;51.320;12.340;2023-06-04T10:19:38;100881.31;;;26.24;17.56
38038;BME280;23843;51.320;12.340;2023-06-04T10:22:04;100883.72;;;25.86;16.94
38038;BME280;23843;51.320;12.340;2023-06-04T10:24:29;100880.81;;;25.04;17.24
38038;BME280;23843;51.320;12.340;2023-06-04T10:26:58;100874.59;;;24.69;17.91
38038;BME280;23843;51.320;12.340;2023-06-04T10:29:25;100865.63;;;24.77;18.33
38038;BME280;23843;51.320;12.340;2023-06-04T10:31:53;100862.41;;;24.73;18.15
38038;BME280;23843;51.320;12.340;2023-06-04T10:34:19;100857.41;;;24.95;18.66
38038;BME280;23843;51.320;12.340;2023-06-04T10:36:45;100863.63;;;25.30;18.21
38038;BME280;23843;51.320;12.340;2023-06-04T10:39:11;100869.75;;;25.32;17.66
38038;BME280;23843;51.320;12.340;2023-06-04T10:41:36;100873.69;;;24.95;18.06
38038;BME280;23843;51.320;12.340;2023-06-04T10:44:04;100872.09;;;24.84;17.22
38038;BME280;23843;51.320;12.340;2023-06-04T10:46:38;100880.09;;;24.86;17.51
38038;BME280;23843;51.320;12.340;2023-06-04T10:49:03;100867.16;;;24.45;18.15
38038;BME280;23843;51.320;12.340;2023-06-04T10:51:30;100866.31;;;24.45;17.82
38038;BME280;23843;51.320;12.340;2023-06-04T10:53:56;100863.16;;;24.49;17.70
38038;BME280;23843;51.320;12.340;2023-06-04T10:56:25;100884.66;;;24.51;17.61
38038;BME280;23843;51.320;12.340;2023-06-04T10:58:50;100872.63;;;23.47;18.91
38038;BME280;23843;51.320;12.340;2023-06-04T11:01:24;100892.13;;;23.05;18.65
38038;BME280;23843;51.320;12.340;2023-06-04T11:03:50;100886.09;;;22.84;19.20
38038;BME280;23843;51.320;12.340;2023-06-04T11:06:16;100876.41;;;22.91;19.22
38038;BME280;23843;51.320;12.340;2023-06-04T11:08:42;100861.19;;;23.18;19.29
38038;BME280;23843;51.320;12.340;2023-06-04T11:11:11;100866.16;;;23.40;17.81
38038;BME280;23843;51.320;12.340;2023-06-04T11:13:37;100872.88;;;23.36;18.20
38038;BME280;23843;51.320;12.340;2023-06-04T11:16:14;100856.72;;;23.44;18.23
38038;BME280;23843;51.320;12.340;2023-06-04T11:18:41;100857.72;;;23.61;17.73
38038;BME280;23843;51.320;12.340;2023-06-04T11:21:06;100858.91;;;23.59;18.19
38038;BME280;23843;51.320;12.340;2023-06-04T11:23:33;100860.41;;;23.43;17.51
38038;BME280;23843;51.320;12.340;2023-06-04T11:25:58;100863.38;;;23.32;18.81
38038;BME280;23843;51.320;12.340;2023-06-04T11:28:24;100880.41;;;23.15;18.67
38038;BME280;23843;51.320;12.340;2023-06-04T11:30:57;100864.97;;;22.70;19.14
38038;BME280;23843;51.320;12.340;2023-06-04T11:33:22;100855.59;;;22.74;18.95
38038;BME280;23843;51.320;12.340;2023-06-04T11:35:49;100855.38;;;22.57;18.82
38038;BME280;23843;51.320;12.340;2023-06-04T11:38:15;100854.56;;;22.75;18.19
38038;BME280;23843;51.320;12.340;2023-06-04T11:40:40;100859.38;;;22.81;18.54
38038;BME280;23843;51.320;12.340;2023-06-04T11:43:09;100849.56;;;22.80;18.88
38038;BME280;23843;51.320;12.340;2023-06-04T11:45:36;100859.09;;;22.84;18.01
38038;BME280;23843;51.320;12.340;2023-06-04T11:48:04;100847.69;;;22.90;18.73
38038;BME280;23843;51.320;12.340;2023-06-04T11:50:31;100853.91;;;23.00;19.45
38038;BME280;23843;51.320;12.340;2023-06-04T11:52:58;100841.66;;;22.96;18.86
38038;BME280;23843;51.320;12.340;2023-06-04T11:55:25;100849.78;;;22.69;19.10
38038;BME280;23843;51.320;12.340;2023-06-04T11:57:51;100842.66;;;22.68;19.31
38038;BME280;23843;51.320;12.340;2023-06-04T12:00:17;100844.53;;;22.67;18.40
38038;BME280;23843;51.320;12.340;2023-06-04T12:02:50;100843.69;;;22.67;18.50
38038;BME280;23843;51.320;12.340;2023-06-04T12:05:17;100840.97;;;22.67;18.87
38038;BME280;23843;51.320;12.340;2023-06-04T12:07:43;100842.22;;;22.44;18.54
38038;BME280;23843;51.320;12.340;2023-06-04T12:10:11;100838.00;;;22.32;19.03
38038;BME280;23843;51.320;12.340;2023-06-04T12:12:36;100831.19;;;22.28;18.86
38038;BME280;23843;51.320;12.340;2023-06-04T12:15:02;100837.69;;;22.35;19.34
38038;BME280;23843;51.320;12.340;2023-06-04T12:17:28;100846.09;;;22.32;19.17
38038;BME280;23843;51.320;12.340;2023-06-04T12:19:53;100839.44;;;22.27;18.45
38038;BME280;23843;51.320;12.340;2023-06-04T12:22:19;100833.66;;;22.21;19.02
38038;BME280;23843;51.320;12.340;2023-06-04T12:24:49;100834.06;;;22.27;18.83
38038;BME280;23843;51.320;12.340;2023-06-04T12:27:16;100838.53;;;22.36;18.56
38038;BME280;23843;51.320;12.340;2023-06-04T12:29:42;100832.56;;;22.42;18.52
38038;BME280;23843;51.320;12.340;2023-06-04T12:32:09;100834.63;;;22.20;19.42
38038;BME280;23843;51.320;12.340;2023-06-04T12:34:35;100843.84;;;22.08;19.17
38038;BME280;23843;51.320;12.340;2023-06-04T12:37:01;100833.38;;;22.05;19.26
38038;BME280;23843;51.320;12.340;2023-06-04T12:39:26;100843.72;;;22.10;19.66
38038;BME280;23843;51.320;12.340;2023-06-04T12:41:52;100842.59;;;22.12;19.04